<?xml version="1.0" encoding="UTF-8" standalone="no" ?>
<gpx xmlns="http://www.topografix.com/GPX/1/1" xmlns:xsi="http://www.w3.org/2001/XMLSchema-instance" xsi:schemaLocation="http://www.topografix.com/GPX/1/1 http://www.topografix.com/GPX/1/1/gpx.xsd" version="1.1" creator="VisuGPX - https://www.visugpx.com">
  <metadata>
    <name>Saint-barthélémy en boucle</name>
    <desc><![CDATA[Saint-barthélémy en boucle]]></desc>
  </metadata>
  <trk>
    <name><![CDATA[Saint-barthélémy en boucle_1]]></name>
    <trkseg>
      <trkpt lat="42.79164" lon="1.73263">
        <ele>988.37280273438</ele>
        <time>2012-05-17T07:11:33Z</time>
      </trkpt>
      <trkpt lat="42.79163" lon="1.73263">
        <ele>987.89184570312</ele>
        <time>2012-05-17T07:11:36Z</time>
      </trkpt>
      <trkpt lat="42.79146" lon="1.73256">
        <ele>990.29541015625</ele>
        <time>2012-05-17T07:11:42Z</time>
      </trkpt>
      <trkpt lat="42.79136" lon="1.73248">
        <ele>987.89184570312</ele>
        <time>2012-05-17T07:11:46Z</time>
      </trkpt>
      <trkpt lat="42.79123" lon="1.73232">
        <ele>984.52734375</ele>
        <time>2012-05-17T07:11:52Z</time>
      </trkpt>
      <trkpt lat="42.79116" lon="1.73226">
        <ele>983.56591796875</ele>
        <time>2012-05-17T07:11:55Z</time>
      </trkpt>
      <trkpt lat="42.79107" lon="1.7323">
        <ele>982.1240234375</ele>
        <time>2012-05-17T07:11:59Z</time>
      </trkpt>
      <trkpt lat="42.791" lon="1.7325">
        <ele>978.75952148438</ele>
        <time>2012-05-17T07:12:05Z</time>
      </trkpt>
      <trkpt lat="42.79094" lon="1.73266">
        <ele>975.87548828125</ele>
        <time>2012-05-17T07:12:10Z</time>
      </trkpt>
      <trkpt lat="42.79089" lon="1.73283">
        <ele>972.99169921875</ele>
        <time>2012-05-17T07:12:15Z</time>
      </trkpt>
      <trkpt lat="42.79087" lon="1.73297">
        <ele>971.06884765625</ele>
        <time>2012-05-17T07:12:19Z</time>
      </trkpt>
      <trkpt lat="42.79086" lon="1.73305">
        <ele>970.107421875</ele>
        <time>2012-05-17T07:12:21Z</time>
      </trkpt>
      <trkpt lat="42.79087" lon="1.73328">
        <ele>967.7041015625</ele>
        <time>2012-05-17T07:12:27Z</time>
      </trkpt>
      <trkpt lat="42.79086" lon="1.73347">
        <ele>965.78173828125</ele>
        <time>2012-05-17T07:12:32Z</time>
      </trkpt>
      <trkpt lat="42.79081" lon="1.73354">
        <ele>964.33959960938</ele>
        <time>2012-05-17T07:12:35Z</time>
      </trkpt>
      <trkpt lat="42.79066" lon="1.73357">
        <ele>961.45581054688</ele>
        <time>2012-05-17T07:12:41Z</time>
      </trkpt>
      <trkpt lat="42.79064" lon="1.73358">
        <ele>961.45581054688</ele>
        <time>2012-05-17T07:12:42Z</time>
      </trkpt>
      <trkpt lat="42.79057" lon="1.73353">
        <ele>959.533203125</ele>
        <time>2012-05-17T07:12:48Z</time>
      </trkpt>
      <trkpt lat="42.79054" lon="1.73345">
        <ele>957.61059570312</ele>
        <time>2012-05-17T07:12:52Z</time>
      </trkpt>
      <trkpt lat="42.79051" lon="1.73334">
        <ele>957.1298828125</ele>
        <time>2012-05-17T07:12:58Z</time>
      </trkpt>
    </trkseg>
  </trk>
</gpx>